sensor_id;sensor_type;location;lat;lon;timestamp;P1;durP1;ratioP1;P2;durP2;ratioP2
78778;SDS011;68121;52.404;5.318;2023-02-28T00:01:24;1.70;;;0.80;;
78778;SDS011;68121;52.404;5.318;2023-02-28T00:03:51;3.13;;;1.02;;
78778;SDS011;68121;52.404;5.318;2023-02-28T00:06:17;4.18;;;1.20;;
78778;SDS011;68121;52.404;5.318;2023-02-28T00:08:43;2.03;;;0.85;;
78778;SDS011;68121;52.404;5.318;2023-02-28T00:11:10;2.95;;;1.10;;
78778;SDS011;68121;52.404;5.318;2023-02-28T00:13:40;2.33;;;1.15;;
78778;SDS011;68121;52.404;5.318;2023-02-28T00:16:11;5.30;;;1.08;;
78778;SDS011;68121;52.404;5.318;2023-02-28T00:18:39;3.08;;;0.98;;
78778;SDS011;68121;52.404;5.318;2023-02-28T00:21:05;7.07;;;1.38;;
78778;SDS011;68121;52.404;5.318;2023-02-28T00:23:32;2.67;;;1.40;;
78778;SDS011;68121;52.404;5.318;2023-02-28T00:25:59;3.08;;;1.00;;
78778;SDS011;68121;52.404;5.318;2023-02-28T00:28:25;2.15;;;1.23;;
78778;SDS011;68121;52.404;5.318;2023-02-28T00:30:51;5.53;;;1.35;;
78778;SDS011;68121;52.404;5.318;2023-02-28T00:33:17;3.33;;;1.20;;
78778;SDS011;68121;52.404;5.318;2023-02-28T00:35:44;6.13;;;1.08;;
78778;SDS011;68121;52.404;5.318;2023-02-28T00:38:12;4.00;;;1.30;;
78778;SDS011;68121;52.404;5.318;2023-02-28T00:40:39;2.72;;;1.10;;
78778;SDS011;68121;52.404;5.318;2023-02-28T00:43:05;5.70;;;1.10;;
78778;SDS011;68121;52.404;5.318;2023-02-28T00:45:31;3.90;;;1.92;;
78778;SDS011;68121;52.404;5.318;2023-02-28T00:47:57;5.38;;;1.35;;
78778;SDS011;68121;52.404;5.318;2023-02-28T00:50:23;3.42;;;1.20;;
78778;SDS011;68121;52.404;5.318;2023-02-28T00:52:49;3.28;;;1.15;;
78778;SDS011;68121;52.404;5.318;2023-02-28T00:55:15;3.70;;;1.10;;
78778;SDS011;68121;52.404;5.318;2023-02-28T00:57:41;3.70;;;1.20;;
78778;SDS011;68121;52.404;5.318;2023-02-28T01:00:08;4.60;;;1.40;;
78778;SDS011;68121;52.404;5.318;2023-02-28T01:02:34;3.85;;;1.05;;
78778;SDS011;68121;52.404;5.318;2023-02-28T01:05:00;2.10;;;1.13;;
78778;SDS011;68121;52.404;5.318;2023-02-28T01:07:26;3.28;;;1.25;;
78778;SDS011;68121;52.404;5.318;2023-02-28T01:09:52;4.15;;;1.10;;
78778;SDS011;68121;52.404;5.318;2023-02-28T01:12:18;3.72;;;1.08;;
78778;SDS011;68121;52.404;5.318;2023-02-28T01:14:44;4.50;;;1.10;;
78778;SDS011;68121;52.404;5.318;2023-02-28T01:17:10;3.75;;;1.23;;
78778;SDS011;68121;52.404;5.318;2023-02-28T01:19:36;3.72;;;1.25;;
78778;SDS011;68121;52.404;5.318;2023-02-28T01:22:03;3.00;;;0.90;;
78778;SDS011;68121;52.404;5.318;2023-02-28T01:24:30;3.28;;;1.30;;
78778;SDS011;68121;52.404;5.318;2023-02-28T01:26:57;2.95;;;0.90;;
78778;SDS011;68121;52.404;5.318;2023-02-28T01:29:23;2.22;;;1.27;;
78778;SDS011;68121;52.404;5.318;2023-02-28T01:31:49;2.38;;;1.40;;
78778;SDS011;68121;52.404;5.318;2023-02-28T01:34:16;4.40;;;1.50;;
78778;SDS011;68121;52.404;5.318;2023-02-28T01:36:44;4.25;;;1.13;;
78778;SDS011;68121;52.404;5.318;2023-02-28T01:39:11;3.97;;;1.23;;
78778;SDS011;68121;52.404;5.318;2023-02-28T01:41:38;3.47;;;1.00;;
78778;SDS011;68121;52.404;5.318;2023-02-28T01:47:09;2.95;;;1.20;;
78778;SDS011;68121;52.404;5.318;2023-02-28T01:49:35;2.33;;;1.20;;
78778;SDS011;68121;52.404;5.318;2023-02-28T01:52:01;2.20;;;1.40;;
78778;SDS011;68121;52.404;5.318;2023-02-28T01:54:31;4.82;;;1.30;;
78778;SDS011;68121;52.404;5.318;2023-02-28T01:57:08;2.13;;;1.02;;
78778;SDS011;68121;52.404;5.318;2023-02-28T01:59:42;5.72;;;1.65;;
78778;SDS011;68121;52.404;5.318;2023-02-28T02:02:14;2.80;;;1.40;;
78778;SDS011;68121;52.404;5.318;2023-02-28T02:04:46;5.32;;;1.30;;
78778;SDS011;68121;52.404;5.318;2023-02-28T02:07:18;4.47;;;1.20;;
78778;SDS011;68121;52.404;5.318;2023-02-28T02:09:45;3.33;;;1.30;;
78778;SDS011;68121;52.404;5.318;2023-02-28T02:12:19;5.68;;;1.65;;
78778;SDS011;68121;52.404;5.318;2023-02-28T02:15:04;3.58;;;1.23;;
78778;SDS011;68121;52.404;5.318;2023-02-28T02:17:59;5.00;;;1.90;;
78778;SDS011;68121;52.404;5.318;2023-02-28T02:20:59;6.97;;;1.30;;
78778;SDS011;68121;52.404;5.318;2023-02-28T02:26:37;3.63;;;1.40;;
78778;SDS011;68121;52.404;5.318;2023-02-28T02:32:19;4.72;;;1.60;;
78778;SDS011;68121;52.404;5.318;2023-02-28T02:37:50;4.90;;;1.42;;
78778;SDS011;68121;52.404;5.318;2023-02-28T02:40:25;4.07;;;1.40;;
78778;SDS011;68121;52.404;5.318;2023-02-28T02:43:18;5.50;;;1.58;;
78778;SDS011;68121;52.404;5.318;2023-02-28T02:45:59;2.75;;;1.40;;
78778;SDS011;68121;52.404;5.318;2023-02-28T02:48:34;3.25;;;1.50;;
78778;SDS011;68121;52.404;5.318;2023-02-28T02:51:06;2.70;;;1.63;;
78778;SDS011;68121;52.404;5.318;2023-02-28T02:53:38;2.97;;;1.40;;
78778;SDS011;68121;52.404;5.318;2023-02-28T02:56:30;3.00;;;1.67;;
78778;SDS011;68121;52.404;5.318;2023-02-28T02:59:08;3.08;;;1.35;;
78778;SDS011;68121;52.404;5.318;2023-02-28T03:01:37;4.68;;;1.58;;
78778;SDS011;68121;52.404;5.318;2023-02-28T03:04:07;5.43;;;2.20;;
78778;SDS011;68121;52.404;5.318;2023-02-28T03:06:40;4.63;;;2.00;;
78778;SDS011;68121;52.404;5.318;2023-02-28T03:09:06;7.47;;;1.88;;
78778;SDS011;68121;52.404;5.318;2023-02-28T03:11:32;4.82;;;1.50;;
78778;SDS011;68121;52.404;5.318;2023-02-28T03:14:05;4.45;;;1.80;;
78778;SDS011;68121;52.404;5.318;2023-02-28T03:25:58;3.15;;;1.65;;
78778;SDS011;68121;52.404;5.318;2023-02-28T03:31:12;4.97;;;2.08;;
78778;SDS011;68121;52.404;5.318;2023-02-28T03:33:49;3.75;;;1.77;;
78778;SDS011;68121;52.404;5.318;2023-02-28T03:36:23;4.25;;;2.03;;
78778;SDS011;68121;52.404;5.318;2023-02-28T03:38:59;6.63;;;2.42;;
78778;SDS011;68121;52.404;5.318;2023-02-28T03:41:33;4.07;;;1.83;;
78778;SDS011;68121;52.404;5.318;2023-02-28T03:44:12;3.97;;;1.95;;
78778;SDS011;68121;52.404;5.318;2023-02-28T03:46:53;4.68;;;1.88;;
78778;SDS011;68121;52.404;5.318;2023-02-28T03:49:30;4.15;;;2.15;;
78778;SDS011;68121;52.404;5.318;2023-02-28T03:52:01;7.68;;;2.78;;
78778;SDS011;68121;52.404;5.318;2023-02-28T03:54:30;3.35;;;1.83;;
78778;SDS011;68121;52.404;5.318;2023-02-28T03:57:05;3.08;;;1.95;;
78778;SDS011;68121;52.404;5.318;2023-02-28T03:59:38;3.08;;;2.00;;
78778;SDS011;68121;52.404;5.318;2023-02-28T04:02:08;3.40;;;2.08;;
78778;SDS011;68121;52.404;5.318;2023-02-28T04:04:35;5.32;;;2.00;;
78778;SDS011;68121;52.404;5.318;2023-02-28T04:07:03;4.03;;;1.88;;
78778;SDS011;68121;52.404;5.318;2023-02-28T04:09:31;3.67;;;2.33;;
78778;SDS011;68121;52.404;5.318;2023-02-28T04:11:57;3.53;;;2.05;;
78778;SDS011;68121;52.404;5.318;2023-02-28T04:14:23;4.13;;;2.50;;
78778;SDS011;68121;52.404;5.318;2023-02-28T04:16:49;4.00;;;2.58;;
78778;SDS011;68121;52.404;5.318;2023-02-28T04:19:16;4.13;;;2.22;;
78778;SDS011;68121;52.404;5.318;2023-02-28T04:21:44;5.28;;;2.17;;
78778;SDS011;68121;52.404;5.318;2023-02-28T04:24:12;3.97;;;2.30;;
78778;SDS011;68121;52.404;5.318;2023-02-28T04:26:41;6.30;;;2.45;;
78778;SDS011;68121;52.404;5.318;2023-02-28T04:29:09;4.38;;;2.60;;
78778;SDS011;68121;52.404;5.318;2023-02-28T04:31:37;6.40;;;2.65;;
78778;SDS011;68121;52.404;5.318;2023-02-28T04:34:03;6.07;;;3.28;;
78778;SDS011;68121;52.404;5.318;2023-02-28T04:36:30;5.15;;;2.88;;
78778;SDS011;68121;52.404;5.318;2023-02-28T04:38:56;6.35;;;2.78;;
78778;SDS011;68121;52.404;5.318;2023-02-28T04:41:22;4.40;;;3.00;;
78778;SDS011;68121;52.404;5.318;2023-02-28T04:43:50;9.52;;;3.10;;
78778;SDS011;68121;52.404;5.318;2023-02-28T04:46:17;7.32;;;2.70;;
78778;SDS011;68121;52.404;5.318;2023-02-28T04:48:43;7.32;;;3.30;;
78778;SDS011;68121;52.404;5.318;2023-02-28T04:51:11;6.15;;;3.25;;
78778;SDS011;68121;52.404;5.318;2023-02-28T04:53:39;7.50;;;3.38;;
78778;SDS011;68121;52.404;5.318;2023-02-28T04:56:06;5.05;;;2.90;;
78778;SDS011;68121;52.404;5.318;2023-02-28T04:58:33;5.22;;;3.28;;
78778;SDS011;68121;52.404;5.318;2023-02-28T05:01:03;6.75;;;3.30;;
78778;SDS011;68121;52.404;5.318;2023-02-28T05:03:35;6.15;;;3.70;;
78778;SDS011;68121;52.404;5.318;2023-02-28T05:06:01;5.53;;;3.40;;
78778;SDS011;68121;52.404;5.318;2023-02-28T05:08:28;7.47;;;3.67;;
78778;SDS011;68121;52.404;5.318;2023-02-28T05:10:55;7.18;;;3.85;;
78778;SDS011;68121;52.404;5.318;2023-02-28T05:13:21;10.98;;;4.25;;
78778;SDS011;68121;52.404;5.318;2023-02-28T05:15:48;8.88;;;4.95;;
78778;SDS011;68121;52.404;5.318;2023-02-28T05:18:14;8.85;;;4.93;;
78778;SDS011;68121;52.404;5.318;2023-02-28T05:20:40;11.00;;;5.43;;
78778;SDS011;68121;52.404;5.318;2023-02-28T05:23:08;9.25;;;4.88;;
78778;SDS011;68121;52.404;5.318;2023-02-28T05:25:36;9.82;;;5.35;;
78778;SDS011;68121;52.404;5.318;2023-02-28T05:28:02;12.20;;;5.38;;
78778;SDS011;68121;52.404;5.318;2023-02-28T05:30:28;13.05;;;6.13;;
78778;SDS011;68121;52.404;5.318;2023-02-28T05:32:55;14.48;;;5.60;;
78778;SDS011;68121;52.404;5.318;2023-02-28T05:35:21;11.60;;;5.80;;
78778;SDS011;68121;52.404;5.318;2023-02-28T05:37:47;11.02;;;6.15;;
78778;SDS011;68121;52.404;5.318;2023-02-28T05:40:13;10.82;;;5.60;;
78778;SDS011;68121;52.404;5.318;2023-02-28T05:42:40;11.30;;;5.18;;
78778;SDS011;68121;52.404;5.318;2023-02-28T05:45:06;10.52;;;5.97;;
78778;SDS011;68121;52.404;5.318;2023-02-28T05:47:33;10.65;;;5.63;;
78778;SDS011;68121;52.404;5.318;2023-02-28T05:50:00;10.10;;;6.18;;
78778;SDS011;68121;52.404;5.318;2023-02-28T05:52:27;9.73;;;5.57;;
78778;SDS011;68121;52.404;5.318;2023-02-28T05:54:53;11.30;;;4.95;;
78778;SDS011;68121;52.404;5.318;2023-02-28T05:57:19;7.68;;;3.65;;
78778;SDS011;68121;52.404;5.318;2023-02-28T05:59:45;8.27;;;2.55;;
78778;SDS011;68121;52.404;5.318;2023-02-28T06:02:12;5.70;;;2.90;;
78778;SDS011;68121;52.404;5.318;2023-02-28T06:04:39;6.03;;;2.50;;
78778;SDS011;68121;52.404;5.318;2023-02-28T06:07:06;3.08;;;2.17;;
78778;SDS011;68121;52.404;5.318;2023-02-28T06:09:32;5.05;;;2.10;;
78778;SDS011;68121;52.404;5.318;2023-02-28T06:11:59;1.88;;;1.67;;
78778;SDS011;68121;52.404;5.318;2023-02-28T06:14:29;4.75;;;2.05;;
78778;SDS011;68121;52.404;5.318;2023-02-28T06:16:56;4.90;;;1.63;;
78778;SDS011;68121;52.404;5.318;2023-02-28T06:19:23;5.05;;;1.90;;
78778;SDS011;68121;52.404;5.318;2023-02-28T06:21:51;3.83;;;1.98;;
78778;SDS011;68121;52.404;5.318;2023-02-28T06:24:18;7.47;;;2.30;;
78778;SDS011;68121;52.404;5.318;2023-02-28T06:26:45;3.30;;;1.90;;
78778;SDS011;68121;52.404;5.318;2023-02-28T06:29:11;2.92;;;2.03;;
78778;SDS011;68121;52.404;5.318;2023-02-28T06:31:38;3.25;;;1.77;;
78778;SDS011;68121;52.404;5.318;2023-02-28T06:34:05;3.25;;;1.90;;
78778;SDS011;68121;52.404;5.318;2023-02-28T06:36:31;2.65;;;2.13;;
78778;SDS011;68121;52.404;5.318;2023-02-28T06:38:57;5.03;;;2.55;;
78778;SDS011;68121;52.404;5.318;2023-02-28T06:41:23;3.13;;;1.58;;
78778;SDS011;68121;52.404;5.318;2023-02-28T06:43:51;4.78;;;2.17;;
78778;SDS011;68121;52.404;5.318;2023-02-28T06:46:18;3.13;;;1.77;;
78778;SDS011;68121;52.404;5.318;2023-02-28T06:48:44;5.70;;;3.17;;
78778;SDS011;68121;52.404;5.318;2023-02-28T06:51:12;2.80;;;2.05;;
78778;SDS011;68121;52.404;5.318;2023-02-28T06:53:43;3.28;;;2.35;;
78778;SDS011;68121;52.404;5.318;2023-02-28T06:56:11;2.50;;;2.08;;
78778;SDS011;68121;52.404;5.318;2023-02-28T06:58:39;3.35;;;2.70;;
78778;SDS011;68121;52.404;5.318;2023-02-28T07:01:06;3.10;;;2.47;;
78778;SDS011;68121;52.404;5.318;2023-02-28T07:03:34;5.28;;;2.53;;
78778;SDS011;68121;52.404;5.318;2023-02-28T07:06:01;3.58;;;2.53;;
78778;SDS011;68121;52.404;5.318;2023-02-28T07:08:28;6.20;;;2.70;;
78778;SDS011;68121;52.404;5.318;2023-02-28T07:10:54;4.97;;;2.70;;
78778;SDS011;68121;52.404;5.318;2023-02-28T07:13:21;6.50;;;2.53;;
78778;SDS011;68121;52.404;5.318;2023-02-28T07:15:55;3.72;;;2.50;;
78778;SDS011;68121;52.404;5.318;2023-02-28T07:18:25;3.03;;;2.20;;
78778;SDS011;68121;52.404;5.318;2023-02-28T07:20:52;3.92;;;2.60;;
78778;SDS011;68121;52.404;5.318;2023-02-28T07:23:18;4.32;;;2.70;;
78778;SDS011;68121;52.404;5.318;2023-02-28T07:25:44;4.82;;;2.30;;
78778;SDS011;68121;52.404;5.318;2023-02-28T07:28:11;3.97;;;2.80;;
78778;SDS011;68121;52.404;5.318;2023-02-28T07:30:38;6.70;;;2.80;;
78778;SDS011;68121;52.404;5.318;2023-02-28T07:33:05;3.63;;;2.05;;
78778;SDS011;68121;52.404;5.318;2023-02-28T07:35:31;3.55;;;2.63;;
78778;SDS011;68121;52.404;5.318;2023-02-28T07:37:58;5.15;;;2.58;;
78778;SDS011;68121;52.404;5.318;2023-02-28T07:40:24;5.13;;;2.60;;
78778;SDS011;68121;52.404;5.318;2023-02-28T07:42:50;3.38;;;2.50;;
78778;SDS011;68121;52.404;5.318;2023-02-28T07:45:17;7.82;;;3.65;;
78778;SDS011;68121;52.404;5.318;2023-02-28T07:47:43;4.43;;;2.80;;
78778;SDS011;68121;52.404;5.318;2023-02-28T07:50:10;3.75;;;2.53;;
78778;SDS011;68121;52.404;5.318;2023-02-28T07:52:38;5.72;;;3.15;;
78778;SDS011;68121;52.404;5.318;2023-02-28T07:55:05;3.47;;;3.17;;
78778;SDS011;68121;52.404;5.318;2023-02-28T07:57:33;5.60;;;3.50;;
78778;SDS011;68121;52.404;5.318;2023-02-28T07:59:59;4.18;;;3.20;;
78778;SDS011;68121;52.404;5.318;2023-02-28T08:02:25;4.90;;;3.13;;
78778;SDS011;68121;52.404;5.318;2023-02-28T08:04:51;3.75;;;2.97;;
78778;SDS011;68121;52.404;5.318;2023-02-28T08:07:17;5.85;;;3.20;;
78778;SDS011;68121;52.404;5.318;2023-02-28T08:09:44;3.63;;;2.88;;
78778;SDS011;68121;52.404;5.318;2023-02-28T08:12:11;6.00;;;3.17;;
78778;SDS011;68121;52.404;5.318;2023-02-28T08:14:37;3.17;;;2.33;;
78778;SDS011;68121;52.404;5.318;2023-02-28T08:17:03;3.67;;;2.50;;
78778;SDS011;68121;52.404;5.318;2023-02-28T08:19:30;4.65;;;2.75;;
78778;SDS011;68121;52.404;5.318;2023-02-28T08:21:56;3.47;;;2.55;;
78778;SDS011;68121;52.404;5.318;2023-02-28T08:24:22;4.47;;;2.58;;
78778;SDS011;68121;52.404;5.318;2023-02-28T08:26:48;9.10;;;3.03;;
78778;SDS011;68121;52.404;5.318;2023-02-28T08:29:14;5.45;;;3.15;;
78778;SDS011;68121;52.404;5.318;2023-02-28T08:31:40;4.60;;;2.55;;
78778;SDS011;68121;52.404;5.318;2023-02-28T08:34:07;3.20;;;2.45;;
78778;SDS011;68121;52.404;5.318;2023-02-28T08:36:38;4.55;;;2.95;;
78778;SDS011;68121;52.404;5.318;2023-02-28T08:39:04;5.18;;;3.10;;
78778;SDS011;68121;52.404;5.318;2023-02-28T08:41:30;7.22;;;3.80;;
78778;SDS011;68121;52.404;5.318;2023-02-28T08:43:57;5.25;;;3.15;;
78778;SDS011;68121;52.404;5.318;2023-02-28T08:46:23;7.50;;;3.10;;
78778;SDS011;68121;52.404;5.318;2023-02-28T08:48:53;6.07;;;2.83;;
78778;SDS011;68121;52.404;5.318;2023-02-28T08:51:20;5.40;;;3.45;;
78778;SDS011;68121;52.404;5.318;2023-02-28T08:53:52;5.40;;;2.97;;
78778;SDS011;68121;52.404;5.318;2023-02-28T08:56:19;5.43;;;3.10;;
78778;SDS011;68121;52.404;5.318;2023-02-28T08:58:46;6.22;;;2.88;;
78778;SDS011;68121;52.404;5.318;2023-02-28T09:01:17;4.63;;;2.88;;
78778;SDS011;68121;52.404;5.318;2023-02-28T09:03:46;6.15;;;3.22;;
78778;SDS011;68121;52.404;5.318;2023-02-28T09:06:14;3.33;;;3.03;;
78778;SDS011;68121;52.404;5.318;2023-02-28T09:08:42;4.25;;;3.45;;
78778;SDS011;68121;52.404;5.318;2023-02-28T09:11:08;7.63;;;3.35;;
78778;SDS011;68121;52.404;5.318;2023-02-28T09:13:35;6.70;;;3.30;;
78778;SDS011;68121;52.404;5.318;2023-02-28T09:16:03;6.75;;;3.03;;
78778;SDS011;68121;52.404;5.318;2023-02-28T09:18:33;5.35;;;2.83;;
78778;SDS011;68121;52.404;5.318;2023-02-28T09:21:06;4.85;;;3.17;;
78778;SDS011;68121;52.404;5.318;2023-02-28T09:23:34;4.80;;;2.90;;
78778;SDS011;68121;52.404;5.318;2023-02-28T09:26:00;5.55;;;3.47;;
78778;SDS011;68121;52.404;5.318;2023-02-28T09:28:26;4.50;;;2.83;;
78778;SDS011;68121;52.404;5.318;2023-02-28T09:30:53;4.60;;;2.50;;
78778;SDS011;68121;52.404;5.318;2023-02-28T09:33:20;4.57;;;2.40;;
78778;SDS011;68121;52.404;5.318;2023-02-28T09:35:47;4.43;;;3.17;;
78778;SDS011;68121;52.404;5.318;2023-02-28T09:38:14;5.35;;;3.05;;
78778;SDS011;68121;52.404;5.318;2023-02-28T09:43:15;5.78;;;2.72;;
78778;SDS011;68121;52.404;5.318;2023-02-28T09:45:45;4.13;;;2.42;;
78778;SDS011;68121;52.404;5.318;2023-02-28T09:48:20;4.07;;;2.70;;
78778;SDS011;68121;52.404;5.318;2023-02-28T09:50:51;5.50;;;2.30;;
78778;SDS011;68121;52.404;5.318;2023-02-28T09:53:22;4.15;;;2.67;;
78778;SDS011;68121;52.404;5.318;2023-02-28T09:58:50;4.65;;;2.72;;
78778;SDS011;68121;52.404;5.318;2023-02-28T10:01:31;4.93;;;2.28;;
78778;SDS011;68121;52.404;5.318;2023-02-28T10:06:59;3.72;;;2.45;;
78778;SDS011;68121;52.404;5.318;2023-02-28T10:09:27;3.67;;;2.03;;
78778;SDS011;68121;52.404;5.318;2023-02-28T10:12:00;4.35;;;2.67;;
78778;SDS011;68121;52.404;5.318;2023-02-28T10:14:31;3.75;;;1.90;;
78778;SDS011;68121;52.404;5.318;2023-02-28T10:17:10;6.60;;;2.30;;
78778;SDS011;68121;52.404;5.318;2023-02-28T10:22:27;4.82;;;1.90;;
78778;SDS011;68121;52.404;5.318;2023-02-28T10:25:17;3.58;;;2.00;;
78778;SDS011;68121;52.404;5.318;2023-02-28T10:27:48;2.75;;;2.00;;
78778;SDS011;68121;52.404;5.318;2023-02-28T10:30:18;3.65;;;1.80;;
78778;SDS011;68121;52.404;5.318;2023-02-28T10:32:47;3.47;;;2.40;;
78778;SDS011;68121;52.404;5.318;2023-02-28T10:35:19;3.33;;;1.38;;
78778;SDS011;68121;52.404;5.318;2023-02-28T10:37:48;3.78;;;1.40;;
78778;SDS011;68121;52.404;5.318;2023-02-28T10:42:55;2.67;;;1.25;;
78778;SDS011;68121;52.404;5.318;2023-02-28T10:45:22;3.95;;;1.77;;
78778;SDS011;68121;52.404;5.318;2023-02-28T10:47:56;5.90;;;2.33;;
78778;SDS011;68121;52.404;5.318;2023-02-28T11:03:57;5.30;;;1.83;;
78778;SDS011;68121;52.404;5.318;2023-02-28T11:06:25;3.53;;;2.20;;
78778;SDS011;68121;52.404;5.318;2023-02-28T11:08:57;2.78;;;1.60;;
78778;SDS011;68121;52.404;5.318;2023-02-28T11:11:26;2.97;;;2.10;;
78778;SDS011;68121;52.404;5.318;2023-02-28T11:13:57;3.15;;;1.88;;
78778;SDS011;68121;52.404;5.318;2023-02-28T11:16:36;7.30;;;2.30;;
78778;SDS011;68121;52.404;5.318;2023-02-28T11:19:04;2.55;;;1.90;;
78778;SDS011;68121;52.404;5.318;2023-02-28T11:21:45;1.98;;;1.77;;
78778;SDS011;68121;52.404;5.318;2023-02-28T11:24:22;3.47;;;1.85;;
78778;SDS011;68121;52.404;5.318;2023-02-28T11:26:54;2.10;;;1.58;;
78778;SDS011;68121;52.404;5.318;2023-02-28T11:29:24;3.22;;;1.83;;
78778;SDS011;68121;52.404;5.318;2023-02-28T11:34:34;3.15;;;1.60;;
78778;SDS011;68121;52.404;5.318;2023-02-28T11:37:02;2.63;;;1.63;;
78778;SDS011;68121;52.404;5.318;2023-02-28T11:39:32;2.92;;;1.58;;
78778;SDS011;68121;52.404;5.318;2023-02-28T11:55:44;1.80;;;1.15;;
78778;SDS011;68121;52.404;5.318;2023-02-28T12:01:28;2.55;;;1.38;;
78778;SDS011;68121;52.404;5.318;2023-02-28T12:12:28;2.42;;;1.17;;
78778;SDS011;68121;52.404;5.318;2023-02-28T12:15:25;2.33;;;1.52;;
78778;SDS011;68121;52.404;5.318;2023-02-28T12:28:34;1.80;;;1.40;;
78778;SDS011;68121;52.404;5.318;2023-02-28T12:31:24;2.05;;;1.23;;
78778;SDS011;68121;52.404;5.318;2023-02-28T12:33:56;1.10;;;0.82;;
78778;SDS011;68121;52.404;5.318;2023-02-28T12:36:28;1.60;;;1.15;;
78778;SDS011;68121;52.404;5.318;2023-02-28T12:41:40;1.85;;;1.10;;
78778;SDS011;68121;52.404;5.318;2023-02-28T12:44:18;1.75;;;1.05;;
78778;SDS011;68121;52.404;5.318;2023-02-28T12:46:50;1.98;;;0.88;;
78778;SDS011;68121;52.404;5.318;2023-02-28T12:52:02;2.30;;;0.90;;
78778;SDS011;68121;52.404;5.318;2023-02-28T12:57:09;2.00;;;1.10;;
78778;SDS011;68121;52.404;5.318;2023-02-28T13:00:01;1.85;;;0.98;;
78778;SDS011;68121;52.404;5.318;2023-02-28T13:13:28;1.25;;;0.90;;
78778;SDS011;68121;52.404;5.318;2023-02-28T13:18:58;1.85;;;1.10;;
78778;SDS011;68121;52.404;5.318;2023-02-28T13:21:26;2.33;;;0.90;;
78778;SDS011;68121;52.404;5.318;2023-02-28T13:28:57;2.38;;;1.30;;
78778;SDS011;68121;52.404;5.318;2023-02-28T13:31:25;1.17;;;1.08;;
78778;SDS011;68121;52.404;5.318;2023-02-28T13:36:26;2.35;;;1.20;;
78778;SDS011;68121;52.404;5.318;2023-02-28T13:39:01;2.00;;;1.35;;
78778;SDS011;68121;52.404;5.318;2023-02-28T13:46:33;2.22;;;1.65;;
78778;SDS011;68121;52.404;5.318;2023-02-28T13:52:20;3.42;;;1.77;;
78778;SDS011;68121;52.404;5.318;2023-02-28T13:54:58;3.92;;;1.50;;
78778;SDS011;68121;52.404;5.318;2023-02-28T14:03:01;3.90;;;1.70;;
78778;SDS011;68121;52.404;5.318;2023-02-28T14:06:08;1.95;;;1.42;;
78778;SDS011;68121;52.404;5.318;2023-02-28T14:08:58;5.53;;;1.75;;
78778;SDS011;68121;52.404;5.318;2023-02-28T14:11:38;6.45;;;2.13;;
78778;SDS011;68121;52.404;5.318;2023-02-28T14:14:07;2.33;;;1.60;;
78778;SDS011;68121;52.404;5.318;2023-02-28T14:16:41;3.75;;;1.80;;
78778;SDS011;68121;52.404;5.318;2023-02-28T14:19:12;3.10;;;1.80;;
78778;SDS011;68121;52.404;5.318;2023-02-28T14:27:24;3.30;;;1.60;;
78778;SDS011;68121;52.404;5.318;2023-02-28T14:36:03;1.40;;;1.08;;
78778;SDS011;68121;52.404;5.318;2023-02-28T14:38:38;2.22;;;1.60;;
78778;SDS011;68121;52.404;5.318;2023-02-28T14:41:18;3.08;;;1.17;;
78778;SDS011;68121;52.404;5.318;2023-02-28T14:43:57;1.60;;;1.38;;
78778;SDS011;68121;52.404;5.318;2023-02-28T14:46:43;1.55;;;1.00;;
78778;SDS011;68121;52.404;5.318;2023-02-28T14:49:31;2.58;;;1.15;;
78778;SDS011;68121;52.404;5.318;2023-02-28T14:52:34;1.85;;;1.20;;
78778;SDS011;68121;52.404;5.318;2023-02-28T14:54:56;1.83;;;1.17;;
78778;SDS011;68121;52.404;5.318;2023-02-28T14:57:30;2.45;;;1.15;;
78778;SDS011;68121;52.404;5.318;2023-02-28T15:02:41;1.50;;;0.90;;
78778;SDS011;68121;52.404;5.318;2023-02-28T15:07:44;2.70;;;1.25;;
78778;SDS011;68121;52.404;5.318;2023-02-28T15:10:18;2.92;;;1.30;;
78778;SDS011;68121;52.404;5.318;2023-02-28T15:12:47;1.67;;;1.17;;
78778;SDS011;68121;52.404;5.318;2023-02-28T15:15:29;5.05;;;1.35;;
78778;SDS011;68121;52.404;5.318;2023-02-28T15:18:11;1.85;;;1.30;;
78778;SDS011;68121;52.404;5.318;2023-02-28T15:20:42;3.13;;;1.13;;
78778;SDS011;68121;52.404;5.318;2023-02-28T15:23:10;1.63;;;1.15;;
78778;SDS011;68121;52.404;5.318;2023-02-28T15:25:37;3.25;;;1.20;;
78778;SDS011;68121;52.404;5.318;2023-02-28T15:28:04;2.45;;;1.52;;
78778;SDS011;68121;52.404;5.318;2023-02-28T15:30:30;1.30;;;1.00;;
78778;SDS011;68121;52.404;5.318;2023-02-28T15:33:02;3.42;;;1.30;;
78778;SDS011;68121;52.404;5.318;2023-02-28T15:35:49;2.97;;;1.42;;
78778;SDS011;68121;52.404;5.318;2023-02-28T15:38:22;1.52;;;1.10;;
78778;SDS011;68121;52.404;5.318;2023-02-28T15:40:53;1.88;;;1.23;;
78778;SDS011;68121;52.404;5.318;2023-02-28T15:43:28;3.45;;;1.40;;
78778;SDS011;68121;52.404;5.318;2023-02-28T15:48:29;2.83;;;1.60;;
78778;SDS011;68121;52.404;5.318;2023-02-28T15:56:27;4.13;;;2.33;;
78778;SDS011;68121;52.404;5.318;2023-02-28T15:58:59;3.38;;;2.00;;
78778;SDS011;68121;52.404;5.318;2023-02-28T16:01:31;3.17;;;2.25;;
78778;SDS011;68121;52.404;5.318;2023-02-28T16:04:06;3.22;;;1.95;;
78778;SDS011;68121;52.404;5.318;2023-02-28T16:06:43;3.30;;;2.10;;
78778;SDS011;68121;52.404;5.318;2023-02-28T16:09:26;3.25;;;2.20;;
78778;SDS011;68121;52.404;5.318;2023-02-28T16:11:53;4.97;;;1.85;;
78778;SDS011;68121;52.404;5.318;2023-02-28T16:14:23;2.78;;;2.00;;
78778;SDS011;68121;52.404;5.318;2023-02-28T16:16:53;3.70;;;2.03;;
78778;SDS011;68121;52.404;5.318;2023-02-28T16:19:20;3.75;;;1.88;;
78778;SDS011;68121;52.404;5.318;2023-02-28T16:21:47;4.40;;;1.63;;
78778;SDS011;68121;52.404;5.318;2023-02-28T16:24:14;3.33;;;1.83;;
78778;SDS011;68121;52.404;5.318;2023-02-28T16:26:40;5.03;;;2.08;;
78778;SDS011;68121;52.404;5.318;2023-02-28T16:29:08;5.05;;;2.08;;
78778;SDS011;68121;52.404;5.318;2023-02-28T16:31:41;2.90;;;1.98;;
78778;SDS011;68121;52.404;5.318;2023-02-28T16:34:07;3.88;;;2.60;;
78778;SDS011;68121;52.404;5.318;2023-02-28T16:36:33;4.13;;;2.00;;
78778;SDS011;68121;52.404;5.318;2023-02-28T16:38:59;3.88;;;2.10;;
78778;SDS011;68121;52.404;5.318;2023-02-28T16:41:27;3.60;;;2.15;;
78778;SDS011;68121;52.404;5.318;2023-02-28T16:43:54;3.35;;;2.22;;
78778;SDS011;68121;52.404;5.318;2023-02-28T16:46:33;3.47;;;2.25;;
78778;SDS011;68121;52.404;5.318;2023-02-28T16:49:00;3.42;;;2.00;;
78778;SDS011;68121;52.404;5.318;2023-02-28T16:51:26;3.92;;;2.38;;
78778;SDS011;68121;52.404;5.318;2023-02-28T16:53:52;8.38;;;2.55;;
78778;SDS011;68121;52.404;5.318;2023-02-28T16:56:19;3.88;;;2.20;;
78778;SDS011;68121;52.404;5.318;2023-02-28T16:58:47;4.03;;;2.53;;
78778;SDS011;68121;52.404;5.318;2023-02-28T17:01:15;2.70;;;2.33;;
78778;SDS011;68121;52.404;5.318;2023-02-28T17:03:41;4.97;;;2.70;;
78778;SDS011;68121;52.404;5.318;2023-02-28T17:06:19;4.95;;;2.45;;
78778;SDS011;68121;52.404;5.318;2023-02-28T17:08:55;2.55;;;2.20;;
78778;SDS011;68121;52.404;5.318;2023-02-28T17:11:23;4.03;;;2.28;;
78778;SDS011;68121;52.404;5.318;2023-02-28T17:13:50;5.50;;;2.47;;
78778;SDS011;68121;52.404;5.318;2023-02-28T17:16:34;3.60;;;2.38;;
78778;SDS011;68121;52.404;5.318;2023-02-28T17:19:03;3.13;;;2.28;;
78778;SDS011;68121;52.404;5.318;2023-02-28T17:21:31;3.80;;;2.55;;
78778;SDS011;68121;52.404;5.318;2023-02-28T17:23:58;4.60;;;2.75;;
78778;SDS011;68121;52.404;5.318;2023-02-28T17:26:25;4.28;;;2.50;;
78778;SDS011;68121;52.404;5.318;2023-02-28T17:28:53;5.72;;;2.53;;
78778;SDS011;68121;52.404;5.318;2023-02-28T17:31:23;4.35;;;2.75;;
78778;SDS011;68121;52.404;5.318;2023-02-28T17:33:50;3.15;;;2.53;;
78778;SDS011;68121;52.404;5.318;2023-02-28T17:36:20;4.10;;;2.53;;
78778;SDS011;68121;52.404;5.318;2023-02-28T17:38:48;3.83;;;2.53;;
78778;SDS011;68121;52.404;5.318;2023-02-28T17:41:14;2.65;;;2.08;;
78778;SDS011;68121;52.404;5.318;2023-02-28T17:43:40;3.70;;;2.60;;